Hitachimaru — JD2063 — position and weather

sailwx.info

Track history (hours):
 
Tides and Currents Weather Stations Pressure Air Temp Water Temp Dewpoint Dewpoint Depression Visibility Wind Speed Wind Dir Waves Ship Positions

Hitachimaru

Last reported at 2017-Jun-20 04:01 UTC. Time now 2017-Jun-23 00:14 UTC.
Position N 35°17' E 139°45'.

Length 83 m; draft 4.7 m.

Type: Cargo ship. MMSI: 431301756.

Date/timePositionNaut miles runAvg speedWind from/ knotsBaromVisibWave heightAir tempDewpointWater temp
2017-Jun-20 04:01N 35°17' E 139°45'013.8
2017-Jun-20 04:01N 35°17' E 139°45'612.3
2017-Jun-20 03:31N 35°23' E 139°43'611.8
2017-Jun-20 03:01N 35°27' E 139°48'612.6
2017-Jun-20 02:30N 35°32' E 139°53'812.3
2017-Jun-20 01:53N 35°38' E 139°59'2 0.2
2017-Jun-19 17:11N 35°40' E 139°57'3 9.3
2017-Jun-19 16:53N 35°37' E 139°59'2 3.3
2017-Jun-19 16:12N 35°35' E 139°57'2 8.2
2017-Jun-19 16:00N 35°34' E 139°56'611.9
2017-Jun-19 15:30N 35°29' E 139°52'611.7
2017-Jun-19 15:00N 35°25' E 139°47'1110.5
2017-Jun-19 14:00N 35°14' E 139°47'611.7
2017-Jun-19 13:31N 35°09' E 139°46'243 5.6
2017-Jun-17 17:57N 34°07' E 134°60'611.7
2017-Jun-17 17:24N 34°14' E 134°59'1310.2
2017-Jun-17 16:05N 34°26' E 135°06'111.3
2017-Jun-17 16:00N 34°27' E 135°07'612.3
2017-Jun-17 15:30N 34°30' E 135°13'611.9
2017-Jun-17 15:00N 34°34' E 135°19'510.5
2017-Jun-17 14:29N 34°36' E 135°25'3 0.4
2017-Jun-17 08:22N 34°34' E 135°27'1 0.1
2017-Jun-17 00:54N 34°35' E 135°27'1 0.2
2017-Jun-16 18:06N 34°34' E 135°27'0 0.1
2017-Jun-16 18:00N 34°34' E 135°27'0 0.0
2017-Jun-16 17:18N 34°34' E 135°27'0 0.0
2017-Jun-16 08:42N 34°34' E 135°27'1 3.4
2017-Jun-16 08:25N 34°35' E 135°27'0 0.0
2017-Jun-16 08:00N 34°35' E 135°27'0 0.0
2017-Jun-16 07:30N 34°35' E 135°27'0 0.0
2017-Jun-16 06:36N 34°35' E 135°27'0 0.1
2017-Jun-16 06:30N 34°35' E 135°27'0 0.0
2017-Jun-16 06:00N 34°35' E 135°27'0 0.0
2017-Jun-16 05:30N 34°35' E 135°27'0 0.0
2017-Jun-16 05:00N 34°35' E 135°27'0 0.0
2017-Jun-16 04:18N 34°35' E 135°27'0 0.0
2017-Jun-16 04:00N 34°35' E 135°27'0 0.0
2017-Jun-16 03:30N 34°35' E 135°27'0 0.0
2017-Jun-16 02:54N 34°35' E 135°27'0 0.0
2017-Jun-16 02:30N 34°35' E 135°27'0 0.0
2017-Jun-16 01:48N 34°35' E 135°27'0 0.0
2017-Jun-16 01:30N 34°35' E 135°27'0 0.0
2017-Jun-16 01:00N 34°35' E 135°27'0 0.0
2017-Jun-16 00:30N 34°35' E 135°27'0 0.0
2017-Jun-16 00:00N 34°35' E 135°27'0 0.0
2017-Jun-15 23:30N 34°35' E 135°27'0 0.0
2017-Jun-15 23:00N 34°35' E 135°27'2 4.1
2017-Jun-15 22:31N 34°36' E 135°25'5 9.7
2017-Jun-15 22:00N 34°36' E 135°19'0 0.1
2017-Jun-15 21:26N 34°36' E 135°19'0 0.0
2017-Jun-15 20:55N 34°36' E 135°19'0 0.0
2017-Jun-15 20:25N 34°36' E 135°19'0 0.0
2017-Jun-15 19:55N 34°36' E 135°19'0 0.1
2017-Jun-15 19:25N 34°36' E 135°19'0 0.1
2017-Jun-15 18:55N 34°36' E 135°19'0 0.0
2017-Jun-15 18:25N 34°36' E 135°19'0 0.1
2017-Jun-15 17:55N 34°36' E 135°19'0 0.0
2017-Jun-15 17:25N 34°36' E 135°19'0 0.0
2017-Jun-15 16:55N 34°36' E 135°19'0 0.0
2017-Jun-15 15:43N 34°36' E 135°19'0 0.0
2017-Jun-15 15:25N 34°36' E 135°19'0 0.0
2017-Jun-15 14:55N 34°36' E 135°19'0 0.0
2017-Jun-15 14:25N 34°36' E 135°19'0 0.0
2017-Jun-15 12:49N 34°36' E 135°19'0 0.0
2017-Jun-15 12:25N 34°36' E 135°19'1 1.9
2017-Jun-15 12:00N 34°36' E 135°18'713.6
2017-Jun-15 11:30N 34°35' E 135°10'713.8
2017-Jun-15 11:00N 34°37' E 135°02'713.1
2017-Jun-15 10:29N 34°37' E 134°53'713.9
2017-Jun-15 09:59N 34°41' E 134°46'  
2017-Jun-11 19:13N 34°38' E 134°54'310.5
2017-Jun-11 18:54N 34°37' E 134°58'4 8.5
2017-Jun-11 18:29N 34°37' E 135°02'4 8.8
2017-Jun-11 18:00N 34°34' E 135°06'611.1
2017-Jun-11 17:30N 34°29' E 135°04'610.8
2017-Jun-11 16:57N 34°23' E 135°02'610.9
2017-Jun-11 16:27N 34°18' E 134°60'510.7
2017-Jun-11 16:00N 34°13' E 134°60'611.5
2017-Jun-11 15:30N 34°07' E 135°00'  
Track history (hours):
 
Tides and Currents Weather Stations Pressure Air Temp Water Temp Dewpoint Dewpoint Depression Visibility Wind Speed Wind Dir Waves Ship Positions

Hitachimaru

Last reported at 2017-Jun-20 04:01 UTC. Time now 2017-Jun-23 00:14 UTC.
Position N 35°17' E 139°45'.

Length 83 m; draft 4.7 m.

Type: Cargo ship. MMSI: 431301756.

Date/timePositionNaut miles runAvg speedWind from/ knotsBaromVisibWave heightAir tempDewpointWater temp
2017-Jun-20 04:01N 35°17' E 139°45'013.8
2017-Jun-20 04:01N 35°17' E 139°45'612.3
2017-Jun-20 03:31N 35°23' E 139°43'611.8
2017-Jun-20 03:01N 35°27' E 139°48'612.6
2017-Jun-20 02:30N 35°32' E 139°53'812.3
2017-Jun-20 01:53N 35°38' E 139°59'2 0.2
2017-Jun-19 17:11N 35°40' E 139°57'3 9.3
2017-Jun-19 16:53N 35°37' E 139°59'2 3.3
2017-Jun-19 16:12N 35°35' E 139°57'2 8.2
2017-Jun-19 16:00N 35°34' E 139°56'611.9
2017-Jun-19 15:30N 35°29' E 139°52'611.7
2017-Jun-19 15:00N 35°25' E 139°47'1110.5
2017-Jun-19 14:00N 35°14' E 139°47'611.7
2017-Jun-19 13:31N 35°09' E 139°46'243 5.6
2017-Jun-17 17:57N 34°07' E 134°60'611.7
2017-Jun-17 17:24N 34°14' E 134°59'1310.2
2017-Jun-17 16:05N 34°26' E 135°06'111.3
2017-Jun-17 16:00N 34°27' E 135°07'612.3
2017-Jun-17 15:30N 34°30' E 135°13'611.9
2017-Jun-17 15:00N 34°34' E 135°19'510.5
2017-Jun-17 14:29N 34°36' E 135°25'3 0.4
2017-Jun-17 08:22N 34°34' E 135°27'1 0.1
2017-Jun-17 00:54N 34°35' E 135°27'1 0.2
2017-Jun-16 18:06N 34°34' E 135°27'0 0.1
2017-Jun-16 18:00N 34°34' E 135°27'0 0.0
2017-Jun-16 17:18N 34°34' E 135°27'0 0.0
2017-Jun-16 08:42N 34°34' E 135°27'1 3.4
2017-Jun-16 08:25N 34°35' E 135°27'0 0.0
2017-Jun-16 08:00N 34°35' E 135°27'0 0.0
2017-Jun-16 07:30N 34°35' E 135°27'0 0.0
2017-Jun-16 06:36N 34°35' E 135°27'0 0.1
2017-Jun-16 06:30N 34°35' E 135°27'0 0.0
2017-Jun-16 06:00N 34°35' E 135°27'0 0.0
2017-Jun-16 05:30N 34°35' E 135°27'0 0.0
2017-Jun-16 05:00N 34°35' E 135°27'0 0.0
2017-Jun-16 04:18N 34°35' E 135°27'0 0.0
2017-Jun-16 04:00N 34°35' E 135°27'0 0.0
2017-Jun-16 03:30N 34°35' E 135°27'0 0.0
2017-Jun-16 02:54N 34°35' E 135°27'0 0.0
2017-Jun-16 02:30N 34°35' E 135°27'0 0.0
2017-Jun-16 01:48N 34°35' E 135°27'0 0.0
2017-Jun-16 01:30N 34°35' E 135°27'0 0.0
2017-Jun-16 01:00N 34°35' E 135°27'0 0.0
2017-Jun-16 00:30N 34°35' E 135°27'0 0.0
2017-Jun-16 00:00N 34°35' E 135°27'0 0.0
2017-Jun-15 23:30N 34°35' E 135°27'0 0.0
2017-Jun-15 23:00N 34°35' E 135°27'2 4.1
2017-Jun-15 22:31N 34°36' E 135°25'5 9.7
2017-Jun-15 22:00N 34°36' E 135°19'0 0.1
2017-Jun-15 21:26N 34°36' E 135°19'0 0.0
2017-Jun-15 20:55N 34°36' E 135°19'0 0.0
2017-Jun-15 20:25N 34°36' E 135°19'0 0.0
2017-Jun-15 19:55N 34°36' E 135°19'0 0.1
2017-Jun-15 19:25N 34°36' E 135°19'0 0.1
2017-Jun-15 18:55N 34°36' E 135°19'0 0.0
2017-Jun-15 18:25N 34°36' E 135°19'0 0.1
2017-Jun-15 17:55N 34°36' E 135°19'0 0.0
2017-Jun-15 17:25N 34°36' E 135°19'0 0.0
2017-Jun-15 16:55N 34°36' E 135°19'0 0.0
2017-Jun-15 15:43N 34°36' E 135°19'0 0.0
2017-Jun-15 15:25N 34°36' E 135°19'0 0.0
2017-Jun-15 14:55N 34°36' E 135°19'0 0.0
2017-Jun-15 14:25N 34°36' E 135°19'0 0.0
2017-Jun-15 12:49N 34°36' E 135°19'0 0.0
2017-Jun-15 12:25N 34°36' E 135°19'1 1.9
2017-Jun-15 12:00N 34°36' E 135°18'713.6
2017-Jun-15 11:30N 34°35' E 135°10'713.8
2017-Jun-15 11:00N 34°37' E 135°02'713.1
2017-Jun-15 10:29N 34°37' E 134°53'713.9
2017-Jun-15 09:59N 34°41' E 134°46'  
2017-Jun-11 19:13N 34°38' E 134°54'310.5
2017-Jun-11 18:54N 34°37' E 134°58'4 8.5
2017-Jun-11 18:29N 34°37' E 135°02'4 8.8
2017-Jun-11 18:00N 34°34' E 135°06'611.1
2017-Jun-11 17:30N 34°29' E 135°04'610.8
2017-Jun-11 16:57N 34°23' E 135°02'610.9
2017-Jun-11 16:27N 34°18' E 134°60'510.7
2017-Jun-11 16:00N 34°13' E 134°60'611.5
2017-Jun-11 15:30N 34°07' E 135°00'  

Dump ship's entire track history